Time,TemperatureF,DewpointF,PressureIn,WindDirection,WindDirectionDegrees,WindSpeedMPH,WindSpeedGustMPH,Humidity,HourlyPrecipIn,Conditions,Clouds,dailyrainin,SoftwareType,DateUTC
2013-06-27 00:01:00,66.2,61.6,29.79,NNW,338,0.4,0.7,85,0.00,,,0.00,WUHU216HW,2013-06-27 04:01:00,
2013-06-27 00:02:00,66.1,61.4,29.79,NNW,338,0.4,0.7,85,0.00,,,0.00,WUHU216HW,2013-06-27 04:02:00,
2013-06-27 00:07:00,65.9,61.2,29.79,NNW,338,0.0,0.7,85,0.00,,,0.00,WUHU216HW,2013-06-27 04:07:00,
2013-06-27 00:12:00,65.9,61.2,29.78,NNW,338,0.0,0.4,85,0.00,,,0.00,WUHU216HW,2013-06-27 04:12:00,
2013-06-27 00:17:00,65.9,61.6,29.78,NNW,338,0.0,0.0,86,0.00,,,0.00,WUHU216HW,2013-06-27 04:17:00,
2013-06-27 00:22:00,65.9,61.6,29.78,NNW,338,0.0,0.0,86,0.00,,,0.00,WUHU216HW,2013-06-27 04:22:00,
2013-06-27 00:27:00,65.9,61.6,29.77,NW,315,0.0,0.0,86,0.00,,,0.00,WUHU216HW,2013-06-27 04:27:00,
2013-06-27 00:32:00,65.9,61.6,29.78,NW,315,0.0,0.0,86,0.00,,,0.00,WUHU216HW,2013-06-27 04:32:00,
2013-06-27 00:37:00,65.9,61.8,29.77,NW,315,0.2,1.1,87,0.00,,,0.00,WUHU216HW,2013-06-27 04:37:00,
2013-06-27 00:42:00,65.7,61.4,29.77,NW,315,0.0,1.1,86,0.00,,,0.00,WUHU216HW,2013-06-27 04:42:00,
2013-06-27 00:47:00,65.7,61.8,29.77,NW,315,0.0,0.2,87,0.00,,,0.00,WUHU216HW,2013-06-27 04:47:00,
2013-06-27 00:52:00,65.7,61.8,29.76,NW,315,0.0,0.0,87,0.00,,,0.00,WUHU216HW,2013-06-27 04:52:00,
2013-06-27 00:57:00,65.7,61.8,29.77,NW,315,0.0,0.0,87,0.00,,,0.00,WUHU216HW,2013-06-27 04:57:00,
2013-06-27 01:02:00,65.7,62.0,29.76,NW,315,0.0,0.0,88,0.00,,,0.00,WUHU216HW,2013-06-27 05:02:00,
2013-06-27 01:07:00,65.7,62.0,29.76,West,270,0.0,0.0,88,0.00,,,0.00,WUHU216HW,2013-06-27 05:07:00,
2013-06-27 01:12:00,65.7,62.0,29.76,West,270,0.0,0.0,88,0.00,,,0.00,WUHU216HW,2013-06-27 05:12:00,
2013-06-27 01:17:00,65.7,62.0,29.77,West,270,0.0,0.0,88,0.00,,,0.00,WUHU216HW,2013-06-27 05:17:00,
2013-06-27 01:22:00,65.9,61.8,29.77,West,270,0.0,0.0,87,0.00,,,0.00,WUHU216HW,2013-06-27 05:22:00,
2013-06-27 01:27:00,65.9,62.2,29.76,WSW,248,0.0,0.0,88,0.00,,,0.00,WUHU216HW,2013-06-27 05:27:00,
2013-06-27 01:32:00,65.7,62.0,29.76,WSW,248,0.0,0.0,88,0.00,,,0.00,WUHU216HW,2013-06-27 05:32:00,
2013-06-27 01:37:00,65.7,62.0,29.76,WSW,248,0.0,0.0,88,0.00,,,0.00,WUHU216HW,2013-06-27 05:37:00,
2013-06-27 01:42:00,65.5,61.8,29.75,WSW,248,0.0,0.0,88,0.00,,,0.00,WUHU216HW,2013-06-27 05:42:00,
2013-06-27 01:47:00,65.7,62.0,29.75,NNW,338,0.7,0.7,88,0.00,,,0.00,WUHU216HW,2013-06-27 05:47:00,
2013-06-27 01:52:00,65.5,61.8,29.75,NNW,338,0.0,0.9,88,0.00,,,0.00,WUHU216HW,2013-06-27 05:52:00,
2013-06-27 01:57:00,65.5,61.8,29.75,West,270,0.0,0.9,88,0.00,,,0.00,WUHU216HW,2013-06-27 05:57:00,
2013-06-27 02:02:00,65.5,61.8,29.75,West,270,0.0,0.0,88,0.00,,,0.00,WUHU216HW,2013-06-27 06:02:00,
2013-06-27 02:07:00,65.5,61.8,29.75,West,270,0.0,0.0,88,0.00,,,0.00,WUHU216HW,2013-06-27 06:07:00,
2013-06-27 02:12:00,65.5,61.8,29.75,North,0,0.0,0.0,88,0.00,,,0.00,WUHU216HW,2013-06-27 06:12:00,
2013-06-27 02:17:00,65.5,61.8,29.74,NE,45,0.0,0.0,88,0.00,,,0.00,WUHU216HW,2013-06-27 06:17:00,
2013-06-27 02:22:00,65.3,61.8,29.74,NE,45,0.0,0.0,88,0.00,,,0.00,WUHU216HW,2013-06-27 06:22:00,
2013-06-27 02:27:00,65.3,61.8,29.74,NE,45,0.0,0.0,88,0.00,,,0.00,WUHU216HW,2013-06-27 06:27:00,
2013-06-27 02:32:00,65.3,61.8,29.74,NE,45,0.0,0.0,88,0.00,,,0.00,WUHU216HW,2013-06-27 06:32:00,
2013-06-27 02:37:00,65.2,61.8,29.74,NE,45,0.0,0.0,89,0.00,,,0.00,WUHU216HW,2013-06-27 06:37:00,
2013-06-27 02:42:00,65.2,61.6,29.73,NE,45,0.0,0.0,88,0.00,,,0.00,WUHU216HW,2013-06-27 06:42:00,
2013-06-27 02:47:00,65.2,61.6,29.73,NE,45,0.0,0.0,88,0.00,,,0.00,WUHU216HW,2013-06-27 06:47:00,
2013-06-27 02:52:00,65.2,61.6,29.73,NE,45,0.0,0.0,88,0.00,,,0.00,WUHU216HW,2013-06-27 06:52:00,
2013-06-27 02:57:00,65.2,61.6,29.73,NE,45,0.0,0.2,88,0.00,,,0.00,WUHU216HW,2013-06-27 06:57:00,
2013-06-27 03:02:00,65.2,61.6,29.72,NE,45,0.0,0.2,88,0.00,,,0.00,WUHU216HW,2013-06-27 07:02:00,
2013-06-27 03:07:00,65.2,61.8,29.72,NE,45,0.0,0.0,89,0.00,,,0.00,WUHU216HW,2013-06-27 07:07:00,
2013-06-27 03:12:00,65.0,61.4,29.72,NE,45,0.0,0.0,88,0.00,,,0.00,WUHU216HW,2013-06-27 07:12:00,
2013-06-27 03:17:00,65.0,61.4,29.72,NE,45,0.0,0.0,88,0.00,,,0.00,WUHU216HW,2013-06-27 07:17:00,
2013-06-27 03:22:00,65.0,61.4,29.72,NE,45,0.0,1.1,88,0.00,,,0.00,WUHU216HW,2013-06-27 07:22:00,
2013-06-27 03:27:00,65.0,61.4,29.72,NE,45,0.0,1.1,88,0.00,,,0.00,WUHU216HW,2013-06-27 07:27:00,
2013-06-27 03:32:00,64.8,61.2,29.72,NE,45,0.0,0.7,88,0.00,,,0.00,WUHU216HW,2013-06-27 07:32:00,
2013-06-27 03:37:00,64.8,61.6,29.71,NE,45,0.0,0.7,89,0.00,,,0.00,WUHU216HW,2013-06-27 07:37:00,
2013-06-27 03:42:00,64.8,61.2,29.71,NE,45,0.0,0.7,88,0.00,,,0.00,WUHU216HW,2013-06-27 07:42:00,
2013-06-27 03:47:00,64.6,61.0,29.71,NE,45,0.0,0.0,88,0.00,,,0.00,WUHU216HW,2013-06-27 07:47:00,
2013-06-27 03:52:00,64.6,61.4,29.71,NE,45,0.0,0.0,89,0.00,,,0.00,WUHU216HW,2013-06-27 07:52:00,
2013-06-27 03:57:00,64.4,61.2,29.70,NE,45,0.0,0.0,89,0.00,,,0.00,WUHU216HW,2013-06-27 07:57:00,
2013-06-27 04:02:00,64.4,61.2,29.70,NE,45,0.0,0.0,89,0.00,,,0.00,WUHU216HW,2013-06-27 08:02:00,
2013-06-27 04:07:00,64.4,61.2,29.70,NE,45,0.0,0.0,89,0.00,,,0.00,WUHU216HW,2013-06-27 08:07:00,
2013-06-27 04:12:00,64.4,61.2,29.70,NE,45,0.0,0.0,89,0.00,,,0.00,WUHU216HW,2013-06-27 08:12:00,
2013-06-27 04:17:00,64.4,61.2,29.70,NE,45,0.0,0.0,89,0.00,,,0.00,WUHU216HW,2013-06-27 08:17:00,
2013-06-27 04:22:00,64.4,61.2,29.70,NE,45,0.0,0.0,89,0.00,,,0.00,WUHU216HW,2013-06-27 08:22:00,
2013-06-27 04:27:00,64.3,61.0,29.69,NE,45,0.0,0.0,89,0.00,,,0.00,WUHU216HW,2013-06-27 08:27:00,
2013-06-27 04:32:00,64.3,61.0,29.69,NE,45,0.0,0.4,89,0.00,,,0.00,WUHU216HW,2013-06-27 08:32:00,
2013-06-27 04:37:00,64.3,61.0,29.69,NE,45,0.0,0.4,89,0.00,,,0.00,WUHU216HW,2013-06-27 08:37:00,
2013-06-27 04:42:00,64.3,61.0,29.68,NE,45,0.0,0.0,89,0.00,,,0.00,WUHU216HW,2013-06-27 08:42:00,
2013-06-27 04:47:00,64.1,60.8,29.68,NE,45,0.0,0.0,89,0.00,,,0.00,WUHU216HW,2013-06-27 08:47:00,
2013-06-27 04:52:00,64.1,60.8,29.68,NE,45,0.0,0.0,89,0.00,,,0.00,WUHU216HW,2013-06-27 08:52:00,
2013-06-27 04:57:00,64.1,60.8,29.68,NE,45,0.0,0.0,89,0.00,,,0.00,WUHU216HW,2013-06-27 08:57:00,
2013-06-27 05:02:00,64.1,60.8,29.68,NE,45,0.0,0.0,89,0.00,,,0.00,WUHU216HW,2013-06-27 09:02:00,
2013-06-27 05:07:00,64.1,60.8,29.68,NE,45,0.0,0.4,89,0.00,,,0.00,WUHU216HW,2013-06-27 09:07:00,
2013-06-27 05:12:00,64.1,61.2,29.68,NE,45,0.0,0.4,90,0.00,,,0.00,WUHU216HW,2013-06-27 09:12:00,
2013-06-27 05:17:00,64.1,61.2,29.67,NE,45,0.0,0.4,90,0.00,,,0.00,WUHU216HW,2013-06-27 09:17:00,
2013-06-27 05:22:00,64.1,61.2,29.68,NE,45,0.0,0.2,90,0.00,,,0.00,WUHU216HW,2013-06-27 09:22:00,
2013-06-27 05:27:00,64.1,61.2,29.68,NE,45,0.4,0.4,90,0.00,,,0.00,WUHU216HW,2013-06-27 09:27:00,
2013-06-27 05:32:00,64.1,61.2,29.67,NE,45,0.0,0.4,90,0.00,,,0.00,WUHU216HW,2013-06-27 09:32:00,
2013-06-27 05:37:00,64.1,61.2,29.67,NE,45,0.0,0.4,90,0.00,,,0.00,WUHU216HW,2013-06-27 09:37:00,
2013-06-27 05:42:00,64.1,61.2,29.68,NE,45,0.0,0.0,90,0.00,,,0.00,WUHU216HW,2013-06-27 09:42:00,
2013-06-27 05:47:00,64.1,61.2,29.67,NE,45,0.0,0.0,90,0.00,,,0.00,WUHU216HW,2013-06-27 09:47:00,
2013-06-27 05:52:00,63.9,61.0,29.67,NE,45,0.0,0.0,90,0.00,,,0.00,WUHU216HW,2013-06-27 09:52:00,
2013-06-27 05:57:00,63.9,61.0,29.67,NE,45,0.4,0.7,90,0.00,,,0.00,WUHU216HW,2013-06-27 09:57:00,
2013-06-27 06:02:00,63.9,61.0,29.68,NW,315,0.4,1.3,90,0.00,,,0.00,WUHU216HW,2013-06-27 10:02:00,
2013-06-27 06:07:00,63.7,60.8,29.68,NW,315,0.0,1.3,90,0.00,,,0.00,WUHU216HW,2013-06-27 10:07:00,
2013-06-27 06:12:00,63.7,60.8,29.68,NW,315,0.0,0.4,90,0.00,,,0.00,WUHU216HW,2013-06-27 10:12:00,
2013-06-27 06:17:00,63.7,60.8,29.68,NW,315,0.0,0.0,90,0.00,,,0.00,WUHU216HW,2013-06-27 10:17:00,
2013-06-27 06:22:00,63.9,61.0,29.68,NW,315,0.0,0.0,90,0.00,,,0.00,WUHU216HW,2013-06-27 10:22:00,
2013-06-27 06:27:00,63.9,61.0,29.67,NW,315,0.0,0.0,90,0.00,,,0.00,WUHU216HW,2013-06-27 10:27:00,
2013-06-27 06:32:00,63.9,61.0,29.67,NW,315,0.0,0.0,90,0.00,,,0.00,WUHU216HW,2013-06-27 10:32:00,
2013-06-27 06:37:00,64.1,61.2,29.67,NW,315,0.0,0.0,90,0.00,,,0.00,WUHU216HW,2013-06-27 10:37:00,
2013-06-27 06:42:00,64.1,61.2,29.67,WSW,248,0.4,0.4,90,0.00,,,0.00,WUHU216HW,2013-06-27 10:42:00,
2013-06-27 06:47:00,64.3,61.4,29.67,WSW,248,0.0,0.4,90,0.00,,,0.00,WUHU216HW,2013-06-27 10:47:00,
2013-06-27 06:52:00,64.3,61.4,29.67,WSW,248,0.0,0.4,90,0.00,,,0.00,WUHU216HW,2013-06-27 10:52:00,
2013-06-27 06:57:00,64.4,61.6,29.67,WSW,248,0.0,0.4,90,0.00,,,0.00,WUHU216HW,2013-06-27 10:57:00,
2013-06-27 07:02:00,64.4,61.6,29.67,WSW,248,0.0,0.0,90,0.00,,,0.00,WUHU216HW,2013-06-27 11:02:00,
2013-06-27 07:07:00,64.4,61.6,29.67,NW,315,0.9,0.9,90,0.00,,,0.00,WUHU216HW,2013-06-27 11:07:00,
2013-06-27 07:12:00,64.4,61.6,29.67,NW,315,1.3,1.3,90,0.00,,,0.00,WUHU216HW,2013-06-27 11:12:00,
2013-06-27 07:17:00,64.6,62.0,29.67,West,270,0.0,1.3,91,0.00,,,0.00,WUHU216HW,2013-06-27 11:17:00,
2013-06-27 07:22:00,64.6,61.8,29.67,WSW,248,0.9,1.3,90,0.00,,,0.00,WUHU216HW,2013-06-27 11:22:00,
2013-06-27 07:27:00,64.6,61.8,29.67,NNW,338,0.0,1.1,90,0.00,,,0.00,WUHU216HW,2013-06-27 11:27:00,
2013-06-27 07:32:00,64.6,61.8,29.66,NNW,338,0.0,0.7,90,0.00,,,0.00,WUHU216HW,2013-06-27 11:32:00,
2013-06-27 07:37:00,64.8,61.9,29.66,WSW,248,0.9,1.6,90,0.00,,,0.00,WUHU216HW,2013-06-27 11:37:00,
2013-06-27 07:42:00,64.8,61.9,29.66,NE,45,0.4,1.6,90,0.00,,,0.00,WUHU216HW,2013-06-27 11:42:00,
2013-06-27 07:47:00,64.8,61.9,29.66,WSW,248,1.1,2.0,90,0.00,,,0.00,WUHU216HW,2013-06-27 11:47:00,
2013-06-27 07:52:00,64.8,61.9,29.66,SW,225,0.9,2.0,90,0.00,,,0.00,WUHU216HW,2013-06-27 11:52:00,
2013-06-27 07:57:00,64.8,62.2,29.66,WNW,293,0.0,2.2,91,0.00,,,0.00,WUHU216HW,2013-06-27 11:57:00,
2013-06-27 08:02:00,64.8,62.2,29.66,WSW,248,0.0,2.2,91,0.00,,,0.00,WUHU216HW,2013-06-27 12:02:00,
2013-06-27 08:07:00,65.0,62.4,29.66,NW,315,0.4,0.7,91,0.00,,,0.00,WUHU216HW,2013-06-27 12:07:00,
2013-06-27 08:12:00,65.2,62.2,29.66,WNW,293,0.0,1.1,90,0.00,,,0.00,WUHU216HW,2013-06-27 12:12:00,
2013-06-27 08:17:00,65.2,62.2,29.66,WNW,293,0.0,1.1,90,0.00,,,0.00,WUHU216HW,2013-06-27 12:17:00,
2013-06-27 08:22:00,65.2,62.5,29.65,WNW,293,0.0,0.0,91,0.00,,,0.00,WUHU216HW,2013-06-27 12:22:00,
2013-06-27 08:27:00,65.5,62.8,29.65,South,180,0.9,0.9,91,0.00,,,0.00,WUHU216HW,2013-06-27 12:27:00,
2013-06-27 08:32:00,65.5,62.8,29.65,South,180,0.0,0.9,91,0.00,,,0.00,WUHU216HW,2013-06-27 12:32:00,
2013-06-27 08:37:00,65.7,63.3,29.66,South,180,0.7,1.6,92,0.00,,,0.00,WUHU216HW,2013-06-27 12:37:00,
2013-06-27 08:42:00,65.9,63.5,29.66,South,180,0.4,1.8,92,0.00,,,0.00,WUHU216HW,2013-06-27 12:42:00,
2013-06-27 08:47:00,66.1,63.6,29.66,South,180,0.4,1.8,92,0.00,,,0.00,WUHU216HW,2013-06-27 12:47:00,
2013-06-27 08:52:00,66.1,63.6,29.66,South,180,1.1,1.1,92,0.00,,,0.00,WUHU216HW,2013-06-27 12:52:00,
2013-06-27 08:57:00,66.2,64.1,29.66,SSE,158,0.2,1.6,93,0.00,,,0.00,WUHU216HW,2013-06-27 12:57:00,
2013-06-27 09:02:00,66.6,64.4,29.66,SSE,158,0.0,1.6,93,0.00,,,0.00,WUHU216HW,2013-06-27 13:02:00,
2013-06-27 09:07:00,66.8,64.6,29.66,South,180,0.7,1.6,93,0.00,,,0.00,WUHU216HW,2013-06-27 13:07:00,
2013-06-27 09:12:00,67.0,64.8,29.66,SSE,158,1.1,1.6,93,0.00,,,0.00,WUHU216HW,2013-06-27 13:12:00,
2013-06-27 09:17:00,67.1,65.0,29.66,SSE,158,0.4,1.6,93,0.00,,,0.00,WUHU216HW,2013-06-27 13:17:00,
2013-06-27 09:22:00,67.1,65.0,29.66,East,90,0.0,1.3,93,0.00,,,0.00,WUHU216HW,2013-06-27 13:22:00,
2013-06-27 09:27:00,67.1,65.0,29.66,ESE,113,0.9,1.3,93,0.00,,,0.00,WUHU216HW,2013-06-27 13:27:00,
2013-06-27 09:32:00,67.0,64.5,29.66,SE,135,0.2,1.3,92,0.00,,,0.00,WUHU216HW,2013-06-27 13:32:00,
2013-06-27 09:37:00,67.0,64.5,29.66,SE,135,0.0,1.3,92,0.00,,,0.00,WUHU216HW,2013-06-27 13:37:00,
2013-06-27 09:42:00,67.0,64.5,29.67,SE,135,0.4,1.3,92,0.00,,,0.00,WUHU216HW,2013-06-27 13:42:00,
2013-06-27 09:47:00,67.0,64.5,29.66,SE,135,0.0,1.3,92,0.00,,,0.00,WUHU216HW,2013-06-27 13:47:00,
2013-06-27 09:52:00,67.1,64.7,29.66,ESE,113,0.0,1.1,92,0.00,,,0.00,WUHU216HW,2013-06-27 13:52:00,
2013-06-27 09:57:00,67.1,64.7,29.67,ESE,113,0.4,1.6,92,0.00,,,0.00,WUHU216HW,2013-06-27 13:57:00,
2013-06-27 10:02:00,67.3,65.2,29.67,ESE,113,0.2,1.6,93,0.00,,,0.00,WUHU216HW,2013-06-27 14:02:00,
2013-06-27 10:07:00,67.3,64.9,29.66,SE,135,0.7,1.8,92,0.00,,,0.00,WUHU216HW,2013-06-27 14:07:00,
2013-06-27 10:12:00,67.3,64.9,29.67,SSW,203,0.9,1.8,92,0.00,,,0.00,WUHU216HW,2013-06-27 14:12:00,
2013-06-27 10:17:00,67.1,64.7,29.67,SSE,158,0.4,1.6,92,0.00,,,0.00,WUHU216HW,2013-06-27 14:17:00,
2013-06-27 10:22:00,67.1,64.4,29.66,SSW,203,0.0,1.3,91,0.00,,,0.00,WUHU216HW,2013-06-27 14:22:00,
2013-06-27 10:27:00,67.1,64.4,29.67,ESE,113,0.0,1.1,91,0.00,,,0.00,WUHU216HW,2013-06-27 14:27:00,
2013-06-27 10:32:00,67.3,64.9,29.67,ESE,113,0.9,1.1,92,0.00,,,0.00,WUHU216HW,2013-06-27 14:32:00,
2013-06-27 10:37:00,67.3,64.9,29.67,ESE,113,0.0,1.3,92,0.00,,,0.00,WUHU216HW,2013-06-27 14:37:00,
2013-06-27 10:43:00,67.3,64.9,29.67,ESE,113,0.4,1.3,92,0.00,,,0.00,WUHU216HW,2013-06-27 14:43:00,
2013-06-27 10:48:00,67.1,64.7,29.67,SE,135,0.0,1.1,92,0.00,,,0.00,WUHU216HW,2013-06-27 14:48:00,
2013-06-27 10:53:00,67.1,64.7,29.67,SE,135,0.4,1.1,92,0.01,,,0.00,WUHU216HW,2013-06-27 14:53:00,
2013-06-27 10:58:00,67.1,64.7,29.67,SE,135,1.3,1.6,92,0.01,,,0.00,WUHU216HW,2013-06-27 14:58:00,
2013-06-27 11:03:00,67.1,64.7,29.67,SE,135,0.7,1.6,92,0.01,,,0.00,WUHU216HW,2013-06-27 15:03:00,
2013-06-27 11:08:00,67.1,64.7,29.67,SE,135,1.1,1.3,92,0.02,,,0.00,WUHU216HW,2013-06-27 15:08:00,
2013-06-27 11:12:00,67.3,65.2,29.67,East,90,0.4,1.3,93,0.02,,,0.00,WUHU216HW,2013-06-27 15:12:00,
2013-06-27 11:18:00,67.3,64.9,29.68,SE,135,0.7,1.1,92,0.02,,,0.00,WUHU216HW,2013-06-27 15:18:00,
2013-06-27 11:23:00,67.3,65.2,29.68,SE,135,0.2,1.3,93,0.02,,,0.00,WUHU216HW,2013-06-27 15:23:00,
2013-06-27 11:28:00,67.3,64.9,29.68,SE,135,0.9,1.3,92,0.02,,,0.00,WUHU216HW,2013-06-27 15:28:00,
2013-06-27 11:33:00,67.3,64.9,29.68,SE,135,0.0,1.3,92,0.02,,,0.00,WUHU216HW,2013-06-27 15:33:00,
2013-06-27 11:38:00,67.3,64.9,29.68,SE,135,0.0,1.3,92,0.02,,,0.00,WUHU216HW,2013-06-27 15:38:00,
2013-06-27 11:43:00,67.3,64.9,29.67,SE,135,0.2,1.1,92,0.02,,,0.00,WUHU216HW,2013-06-27 15:43:00,
2013-06-27 11:48:00,67.5,65.1,29.67,SE,135,0.9,1.1,92,0.01,,,0.00,WUHU216HW,2013-06-27 15:48:00,
2013-06-27 11:53:00,67.7,65.3,29.67,SE,135,0.0,0.9,92,0.01,,,0.00,WUHU216HW,2013-06-27 15:53:00,
2013-06-27 11:58:00,67.9,65.7,29.68,SE,135,0.0,1.1,93,0.01,,,0.00,WUHU216HW,2013-06-27 15:58:00,
2013-06-27 12:03:00,67.9,65.4,29.67,SE,135,0.2,1.1,92,0.01,,,0.00,WUHU216HW,2013-06-27 16:03:00,
2013-06-27 12:08:00,68.0,65.6,29.67,SE,135,0.0,0.4,92,0.00,,,0.00,WUHU216HW,2013-06-27 16:08:00,
2013-06-27 12:13:00,68.2,65.8,29.67,SSW,203,0.4,1.1,92,0.00,,,0.00,WUHU216HW,2013-06-27 16:13:00,
2013-06-27 12:18:00,68.2,65.8,29.67,SSE,158,0.0,1.8,92,0.00,,,0.00,WUHU216HW,2013-06-27 16:18:00,
2013-06-27 12:23:00,68.2,65.4,29.67,SW,225,0.2,1.8,91,0.00,,,0.00,WUHU216HW,2013-06-27 16:23:00,
2013-06-27 12:28:00,68.2,65.4,29.67,WSW,248,0.0,1.1,91,0.00,,,0.00,WUHU216HW,2013-06-27 16:28:00,
2013-06-27 12:33:00,68.2,65.4,29.67,South,180,1.1,1.1,91,0.00,,,0.00,WUHU216HW,2013-06-27 16:33:00,
2013-06-27 12:38:00,68.2,65.4,29.67,ESE,113,0.0,1.6,91,0.00,,,0.00,WUHU216HW,2013-06-27 16:38:00,
2013-06-27 12:43:00,68.2,65.4,29.67,SSE,158,0.0,1.6,91,0.00,,,0.00,WUHU216HW,2013-06-27 16:43:00,
2013-06-27 12:48:00,68.0,65.3,29.67,SE,135,0.0,1.1,91,0.00,,,0.00,WUHU216HW,2013-06-27 16:48:00,
2013-06-27 12:53:00,68.0,65.3,29.67,North,0,0.0,1.1,91,0.00,,,0.00,WUHU216HW,2013-06-27 16:53:00,
2013-06-27 12:58:00,68.0,65.3,29.67,SW,225,0.4,1.1,91,0.00,,,0.00,WUHU216HW,2013-06-27 16:58:00,
2013-06-27 13:03:00,68.0,65.3,29.67,SSE,158,1.6,1.6,91,0.00,,,0.00,WUHU216HW,2013-06-27 17:03:00,
2013-06-27 13:08:00,68.0,65.3,29.67,SE,135,0.4,1.6,91,0.00,,,0.00,WUHU216HW,2013-06-27 17:08:00,
2013-06-27 13:13:00,68.2,65.4,29.67,South,180,0.9,1.1,91,0.00,,,0.00,WUHU216HW,2013-06-27 17:13:00,
2013-06-27 13:18:00,68.2,65.4,29.67,SW,225,0.0,1.1,91,0.00,,,0.00,WUHU216HW,2013-06-27 17:18:00,
2013-06-27 13:23:00,68.4,65.6,29.67,South,180,0.2,1.3,91,0.00,,,0.00,WUHU216HW,2013-06-27 17:23:00,
2013-06-27 13:28:00,68.4,65.6,29.67,SW,225,0.9,1.3,91,0.00,,,0.00,WUHU216HW,2013-06-27 17:28:00,
2013-06-27 13:33:00,68.6,65.8,29.67,SSW,203,0.0,1.1,91,0.00,,,0.00,WUHU216HW,2013-06-27 17:33:00,
2013-06-27 13:38:00,68.6,65.8,29.67,SE,135,0.4,1.6,91,0.00,,,0.00,WUHU216HW,2013-06-27 17:38:00,
2013-06-27 13:43:00,68.4,65.6,29.66,ESE,113,0.4,1.6,91,0.00,,,0.00,WUHU216HW,2013-06-27 17:43:00,
2013-06-27 13:48:00,68.6,65.8,29.66,ESE,113,0.4,1.6,91,0.00,,,0.00,WUHU216HW,2013-06-27 17:48:00,
2013-06-27 13:53:00,68.8,66.0,29.66,South,180,0.0,1.6,91,0.00,,,0.00,WUHU216HW,2013-06-27 17:53:00,
2013-06-27 13:58:00,68.9,66.2,29.66,SW,225,1.1,1.8,91,0.00,,,0.00,WUHU216HW,2013-06-27 17:58:00,
2013-06-27 14:03:00,68.9,66.2,29.66,SW,225,0.4,2.0,91,0.00,,,0.00,WUHU216HW,2013-06-27 18:03:00,
2013-06-27 14:08:00,69.1,66.1,29.66,SSW,203,0.4,2.0,90,0.00,,,0.00,WUHU216HW,2013-06-27 18:08:00,
2013-06-27 14:13:00,69.1,66.1,29.66,WSW,248,1.3,2.0,90,0.00,,,0.00,WUHU216HW,2013-06-27 18:13:00,
2013-06-27 14:18:00,69.1,66.1,29.66,WSW,248,0.9,2.5,90,0.00,,,0.00,WUHU216HW,2013-06-27 18:18:00,
2013-06-27 14:23:00,69.1,65.7,29.66,WNW,293,0.9,2.5,89,0.00,,,0.00,WUHU216HW,2013-06-27 18:23:00,
2013-06-27 14:28:00,69.1,65.4,29.66,SSW,203,1.1,1.8,88,0.00,,,0.00,WUHU216HW,2013-06-27 18:28:00,
2013-06-27 14:33:00,68.9,65.3,29.66,NNE,23,1.6,1.8,88,0.00,,,0.00,WUHU216HW,2013-06-27 18:33:00,
2013-06-27 14:38:00,68.9,65.3,29.66,ESE,113,0.2,1.8,88,0.00,,,0.00,WUHU216HW,2013-06-27 18:38:00,
2013-06-27 14:43:00,68.9,65.5,29.66,SW,225,0.4,1.8,89,0.00,,,0.00,WUHU216HW,2013-06-27 18:43:00,
2013-06-27 14:48:00,68.9,65.5,29.66,SSW,203,0.4,2.2,89,0.00,,,0.00,WUHU216HW,2013-06-27 18:48:00,
2013-06-27 14:53:00,69.1,65.7,29.66,SSE,158,0.2,2.2,89,0.00,,,0.00,WUHU216HW,2013-06-27 18:53:00,
2013-06-27 14:58:00,69.1,65.7,29.65,WNW,293,0.4,1.3,89,0.00,,,0.00,WUHU216HW,2013-06-27 18:58:00,
2013-06-27 15:03:00,69.1,65.7,29.65,ESE,113,0.7,1.3,89,0.00,,,0.00,WUHU216HW,2013-06-27 19:03:00,
2013-06-27 15:08:00,69.3,65.9,29.65,ESE,113,0.2,2.0,89,0.00,,,0.00,WUHU216HW,2013-06-27 19:08:00,
2013-06-27 15:13:00,69.3,65.9,29.65,ESE,113,0.4,2.0,89,0.00,,,0.00,WUHU216HW,2013-06-27 19:13:00,
2013-06-27 15:18:00,69.5,66.1,29.65,West,270,0.4,1.6,89,0.00,,,0.00,WUHU216HW,2013-06-27 19:18:00,
2013-06-27 15:23:00,69.5,66.1,29.65,South,180,0.7,1.1,89,0.00,,,0.00,WUHU216HW,2013-06-27 19:23:00,
2013-06-27 15:28:00,69.5,66.1,29.65,WSW,248,1.1,2.5,89,0.00,,,0.00,WUHU216HW,2013-06-27 19:28:00,
2013-06-27 15:33:00,69.3,65.9,29.65,NNW,338,0.2,2.5,89,0.00,,,0.00,WUHU216HW,2013-06-27 19:33:00,
2013-06-27 15:38:00,69.3,65.9,29.65,SW,225,0.4,2.5,89,0.00,,,0.00,WUHU216HW,2013-06-27 19:38:00,
2013-06-27 15:43:00,69.3,65.9,29.64,SE,135,0.4,2.0,89,0.00,,,0.00,WUHU216HW,2013-06-27 19:43:00,
2013-06-27 15:48:00,69.7,66.2,29.64,WNW,293,1.3,2.2,89,0.00,,,0.00,WUHU216HW,2013-06-27 19:48:00,
2013-06-27 15:53:00,70.2,66.8,29.64,SW,225,0.7,2.2,89,0.00,,,0.00,WUHU216HW,2013-06-27 19:53:00,
2013-06-27 15:58:00,70.6,66.8,29.64,ESE,113,0.4,1.3,88,0.00,,,0.00,WUHU216HW,2013-06-27 19:58:00,
2013-06-27 16:03:00,70.4,66.6,29.63,South,180,0.7,1.3,88,0.00,,,0.00,WUHU216HW,2013-06-27 20:03:00,
2013-06-27 16:08:00,70.2,66.4,29.63,South,180,0.0,0.9,88,0.01,,,0.00,WUHU216HW,2013-06-27 20:08:00,
2013-06-27 16:13:00,70.2,66.4,29.63,SSE,158,0.0,0.7,88,0.01,,,0.00,WUHU216HW,2013-06-27 20:13:00,
2013-06-27 16:18:00,69.8,66.1,29.63,SSE,158,0.4,1.1,88,0.01,,,0.00,WUHU216HW,2013-06-27 20:18:00,
2013-06-27 16:23:00,69.7,65.9,29.63,SSW,203,0.2,1.1,88,0.01,,,0.00,WUHU216HW,2013-06-27 20:23:00,
2013-06-27 16:28:00,69.7,65.9,29.64,SSW,203,0.7,1.8,88,0.01,,,0.00,WUHU216HW,2013-06-27 20:28:00,
2013-06-27 16:33:00,69.8,66.1,29.64,SSW,203,0.4,1.8,88,0.01,,,0.00,WUHU216HW,2013-06-27 20:33:00,
2013-06-27 16:38:00,70.0,66.6,29.63,SW,225,0.0,0.9,89,0.01,,,0.00,WUHU216HW,2013-06-27 20:38:00,
2013-06-27 16:43:00,70.0,66.2,29.63,SSW,203,0.4,0.7,88,0.01,,,0.00,WUHU216HW,2013-06-27 20:43:00,
2013-06-27 16:48:00,70.6,67.1,29.63,SW,225,1.1,1.1,89,0.01,,,0.00,WUHU216HW,2013-06-27 20:48:00,
2013-06-27 16:53:00,71.6,67.9,29.63,WSW,248,1.8,2.0,88,0.01,,,0.00,WUHU216HW,2013-06-27 20:53:00,
2013-06-27 16:58:00,72.4,67.2,29.63,WSW,248,1.8,3.1,84,0.01,,,0.00,WUHU216HW,2013-06-27 20:58:00,
2013-06-27 17:04:00,73.1,68.3,29.63,SW,225,0.7,3.1,85,0.00,,,0.00,WUHU216HW,2013-06-27 21:04:00,
2013-06-27 17:09:00,73.4,68.3,29.63,SSW,203,2.5,2.5,84,0.00,,,0.00,WUHU216HW,2013-06-27 21:09:00,
2013-06-27 17:14:00,73.4,68.0,29.62,WNW,293,0.4,2.5,83,0.00,,,0.00,WUHU216HW,2013-06-27 21:14:00,
2013-06-27 17:19:00,73.6,67.9,29.62,SW,225,1.1,2.5,82,0.00,,,0.00,WUHU216HW,2013-06-27 21:19:00,
2013-06-27 17:24:00,73.4,65.8,29.62,WSW,248,1.3,4.9,77,0.00,,,0.00,WUHU216HW,2013-06-27 21:24:00,
2013-06-27 17:29:00,73.4,67.3,29.63,WSW,248,1.1,4.9,81,0.00,,,0.00,WUHU216HW,2013-06-27 21:29:00,
2013-06-27 17:34:00,73.3,66.8,29.63,West,270,0.9,1.8,80,0.00,,,0.00,WUHU216HW,2013-06-27 21:34:00,
2013-06-27 17:39:00,73.1,67.0,29.62,SSW,203,0.2,2.5,81,0.00,,,0.00,WUHU216HW,2013-06-27 21:39:00,
2013-06-27 17:44:00,72.7,66.2,29.62,SSW,203,0.7,2.5,80,0.00,,,0.00,WUHU216HW,2013-06-27 21:44:00,
2013-06-27 17:49:00,72.4,65.9,29.62,SW,225,1.1,1.8,80,0.00,,,0.00,WUHU216HW,2013-06-27 21:49:00,
2013-06-27 17:55:00,72.0,65.5,29.62,SSW,203,0.0,1.3,80,0.00,,,0.00,WUHU216HW,2013-06-27 21:55:00,
2013-06-27 18:00:00,71.6,65.5,29.62,North,0,0.2,1.1,81,0.00,,,0.00,WUHU216HW,2013-06-27 22:00:00,
2013-06-27 18:05:00,71.3,64.8,29.62,SSW,203,0.4,2.9,80,0.00,,,0.00,WUHU216HW,2013-06-27 22:05:00,
2013-06-27 18:11:00,71.1,65.0,29.62,NNE,23,1.1,2.9,81,0.00,,,0.00,WUHU216HW,2013-06-27 22:11:00,
2013-06-27 18:16:00,70.9,65.2,29.62,SW,225,1.3,1.8,82,0.00,,,0.00,WUHU216HW,2013-06-27 22:16:00,
2013-06-27 18:21:00,71.3,65.5,29.62,SW,225,3.4,3.4,82,0.00,,,0.00,WUHU216HW,2013-06-27 22:21:00,
2013-06-27 18:26:00,71.8,65.3,29.61,ENE,68,0.7,3.4,80,0.00,,,0.00,WUHU216HW,2013-06-27 22:26:00,
2013-06-27 18:31:00,71.8,64.6,29.61,North,0,4.0,4.0,78,0.00,,,0.00,WUHU216HW,2013-06-27 22:31:00,
2013-06-27 18:37:00,72.0,65.2,29.61,North,0,1.6,6.3,79,0.00,,,0.00,WUHU216HW,2013-06-27 22:37:00,
2013-06-27 18:42:00,72.2,65.4,29.62,NNW,338,0.9,2.2,79,0.00,,,0.00,WUHU216HW,2013-06-27 22:42:00,
2013-06-27 18:48:00,72.0,65.2,29.62,SE,135,1.1,2.9,79,0.00,,,0.00,WUHU216HW,2013-06-27 22:48:00,
2013-06-27 18:53:00,71.8,64.6,29.62,WNW,293,2.2,2.9,78,0.00,,,0.00,WUHU216HW,2013-06-27 22:53:00,
2013-06-27 18:58:00,71.5,64.3,29.62,SW,225,1.1,5.8,78,0.00,,,0.00,WUHU216HW,2013-06-27 22:58:00,
2013-06-27 19:03:00,71.3,64.5,29.62,WSW,248,0.9,5.8,79,0.00,,,0.00,WUHU216HW,2013-06-27 23:03:00,
2013-06-27 19:08:00,71.1,64.3,29.62,North,0,1.8,2.5,79,0.00,,,0.00,WUHU216HW,2013-06-27 23:08:00,
2013-06-27 19:13:00,70.9,64.4,29.62,South,180,2.2,3.4,80,0.00,,,0.00,WUHU216HW,2013-06-27 23:13:00,
2013-06-27 19:18:00,70.9,64.4,29.63,SSW,203,2.5,3.4,80,0.00,,,0.00,WUHU216HW,2013-06-27 23:18:00,
2013-06-27 19:23:00,70.7,64.3,29.63,WSW,248,2.2,2.7,80,0.00,,,0.00,WUHU216HW,2013-06-27 23:23:00,
2013-06-27 19:28:00,70.7,64.3,29.63,SW,225,0.4,2.5,80,0.00,,,0.00,WUHU216HW,2013-06-27 23:28:00,
2013-06-27 19:33:00,70.7,64.3,29.63,North,0,0.0,2.2,80,0.00,,,0.00,WUHU216HW,2013-06-27 23:33:00,
2013-06-27 19:38:00,70.4,64.6,29.63,East,90,0.0,1.3,82,0.00,,,0.00,WUHU216HW,2013-06-27 23:38:00,
2013-06-27 19:43:00,70.2,64.5,29.63,North,0,0.0,1.8,82,0.00,,,0.00,WUHU216HW,2013-06-27 23:43:00,
2013-06-27 19:48:00,70.2,64.5,29.63,East,90,0.0,1.8,82,0.00,,,0.00,WUHU216HW,2013-06-27 23:48:00,
2013-06-27 19:53:00,69.8,64.1,29.63,East,90,0.0,0.0,82,0.00,,,0.00,WUHU216HW,2013-06-27 23:53:00,
2013-06-27 19:59:00,69.7,64.3,29.63,East,90,0.0,0.0,83,0.00,,,0.00,WUHU216HW,2013-06-27 23:59:00,
2013-06-27 20:04:00,69.7,64.5,29.63,SE,135,0.4,1.1,84,0.00,,,0.00,WUHU216HW,2013-06-28 00:04:00,
2013-06-27 20:09:00,69.5,64.4,29.63,SE,135,0.0,1.1,84,0.00,,,0.00,WUHU216HW,2013-06-28 00:09:00,
2013-06-27 20:14:00,69.5,64.4,29.63,SE,135,0.0,0.7,84,0.00,,,0.00,WUHU216HW,2013-06-28 00:14:00,
2013-06-27 20:19:00,69.5,64.4,29.64,NNW,338,0.9,1.8,84,0.00,,,0.00,WUHU216HW,2013-06-28 00:19:00,
2013-06-27 20:24:00,69.5,64.4,29.63,SE,135,0.0,1.8,84,0.00,,,0.00,WUHU216HW,2013-06-28 00:24:00,
2013-06-27 20:29:00,69.5,64.4,29.63,SE,135,0.0,1.8,84,0.00,,,0.00,WUHU216HW,2013-06-28 00:29:00,
2013-06-27 20:34:00,69.3,64.3,29.64,SSE,158,0.0,1.1,84,0.00,,,0.00,WUHU216HW,2013-06-28 00:34:00,
2013-06-27 20:39:00,69.3,64.3,29.64,South,180,0.0,1.1,84,0.00,,,0.00,WUHU216HW,2013-06-28 00:39:00,
2013-06-27 20:44:00,69.3,64.3,29.64,ESE,113,0.0,1.1,84,0.00,,,0.00,WUHU216HW,2013-06-28 00:44:00,
2013-06-27 20:49:00,69.1,64.1,29.64,East,90,0.2,1.1,84,0.00,,,0.00,WUHU216HW,2013-06-28 00:49:00,
2013-06-27 20:54:00,69.1,64.1,29.64,East,90,0.0,1.1,84,0.00,,,0.00,WUHU216HW,2013-06-28 00:54:00,
2013-06-27 20:59:00,69.1,64.4,29.64,NE,45,0.0,1.1,85,0.00,,,0.00,WUHU216HW,2013-06-28 00:59:00,
2013-06-27 21:04:00,68.9,63.9,29.63,SSE,158,0.0,1.1,84,0.00,,,0.00,WUHU216HW,2013-06-28 01:04:00,
2013-06-27 21:09:00,68.8,63.7,29.64,SSE,158,0.0,1.1,84,0.00,,,0.00,WUHU216HW,2013-06-28 01:09:00,
2013-06-27 21:15:00,68.9,64.3,29.64,SSE,158,0.0,1.1,85,0.00,,,0.00,WUHU216HW,2013-06-28 01:15:00,
2013-06-27 21:20:00,68.9,63.9,29.64,SSE,158,0.0,0.0,84,0.00,,,0.00,WUHU216HW,2013-06-28 01:20:00,
2013-06-27 21:25:00,68.8,63.7,29.64,SSE,158,0.2,1.1,84,0.00,,,0.00,WUHU216HW,2013-06-28 01:25:00,
2013-06-27 21:30:00,68.9,64.3,29.64,South,180,0.0,1.6,85,0.00,,,0.00,WUHU216HW,2013-06-28 01:30:00,
2013-06-27 21:35:00,68.8,64.1,29.64,SSE,158,0.0,1.6,85,0.00,,,0.00,WUHU216HW,2013-06-28 01:35:00,
2013-06-27 21:41:00,68.8,64.1,29.64,ESE,113,0.9,2.5,85,0.00,,,0.00,WUHU216HW,2013-06-28 01:41:00,
2013-06-27 21:46:00,68.8,64.1,29.64,WSW,248,0.7,2.5,85,0.00,,,0.00,WUHU216HW,2013-06-28 01:46:00,
2013-06-27 21:51:00,68.9,64.3,29.63,SSE,158,0.2,1.6,85,0.00,,,0.00,WUHU216HW,2013-06-28 01:51:00,
2013-06-27 21:56:00,68.9,64.3,29.64,SSE,158,0.0,1.3,85,0.00,,,0.00,WUHU216HW,2013-06-28 01:56:00,
2013-06-27 22:01:00,68.8,64.1,29.64,WSW,248,0.0,0.2,85,0.00,,,0.00,WUHU216HW,2013-06-28 02:01:00,
2013-06-27 22:07:00,68.8,64.1,29.64,SSE,158,0.0,0.2,85,0.00,,,0.00,WUHU216HW,2013-06-28 02:07:00,
2013-06-27 22:12:00,68.8,64.1,29.64,SSE,158,0.4,1.8,85,0.00,,,0.00,WUHU216HW,2013-06-28 02:12:00,
2013-06-27 22:17:00,68.8,64.1,29.64,SSE,158,0.4,1.8,85,0.00,,,0.00,WUHU216HW,2013-06-28 02:17:00,
2013-06-27 22:22:00,68.6,63.9,29.64,SSE,158,0.0,1.1,85,0.00,,,0.00,WUHU216HW,2013-06-28 02:22:00,
2013-06-27 22:28:00,68.6,63.9,29.64,SSE,158,0.0,0.9,85,0.00,,,0.00,WUHU216HW,2013-06-28 02:28:00,
2013-06-27 22:33:00,68.6,63.9,29.64,SSE,158,0.0,0.0,85,0.00,,,0.00,WUHU216HW,2013-06-28 02:33:00,
2013-06-27 22:38:00,68.8,64.1,29.64,SW,225,0.0,0.9,85,0.00,,,0.00,WUHU216HW,2013-06-28 02:38:00,
2013-06-27 22:43:00,68.8,64.1,29.63,SW,225,0.0,0.9,85,0.00,,,0.00,WUHU216HW,2013-06-28 02:43:00,
2013-06-27 22:48:00,68.8,64.1,29.63,SW,225,0.0,0.7,85,0.00,,,0.00,WUHU216HW,2013-06-28 02:48:00,
2013-06-27 22:54:00,68.8,64.1,29.63,SW,225,0.0,0.0,85,0.00,,,0.00,WUHU216HW,2013-06-28 02:54:00,
2013-06-27 22:59:00,68.8,64.1,29.64,NW,315,0.0,0.0,85,0.00,,,0.00,WUHU216HW,2013-06-28 02:59:00,
2013-06-27 23:04:00,68.8,64.1,29.64,NW,315,0.0,0.0,85,0.00,,,0.00,WUHU216HW,2013-06-28 03:04:00,
2013-06-27 23:09:00,68.8,64.1,29.64,WNW,293,0.0,0.0,85,0.00,,,0.00,WUHU216HW,2013-06-28 03:09:00,
2013-06-27 23:14:00,68.8,64.4,29.63,WSW,248,0.0,0.2,86,0.00,,,0.00,WUHU216HW,2013-06-28 03:14:00,
2013-06-27 23:19:00,68.6,64.2,29.63,SSE,158,0.9,1.1,86,0.00,,,0.00,WUHU216HW,2013-06-28 03:19:00,
2013-06-27 23:25:00,68.4,64.0,29.63,NW,315,0.2,1.1,86,0.00,,,0.00,WUHU216HW,2013-06-28 03:25:00,
2013-06-27 23:30:00,68.4,64.0,29.63,SW,225,0.0,1.1,86,0.00,,,0.00,WUHU216HW,2013-06-28 03:30:00,
2013-06-27 23:35:00,68.2,63.9,29.63,SSE,158,0.0,0.4,86,0.00,,,0.00,WUHU216HW,2013-06-28 03:35:00,
2013-06-27 23:40:00,68.2,63.9,29.63,SSE,158,0.0,0.2,86,0.00,,,0.00,WUHU216HW,2013-06-28 03:40:00,
2013-06-27 23:45:00,68.0,64.0,29.63,SSE,158,0.4,0.4,87,0.00,,,0.00,WUHU216HW,2013-06-28 03:45:00,
2013-06-27 23:50:00,68.0,64.0,29.63,SSW,203,0.0,0.4,87,0.00,,,0.00,WUHU216HW,2013-06-28 03:50:00,
2013-06-27 23:55:00,68.0,64.0,29.61,SE,135,0.0,0.7,87,0.00,,,0.00,WUHU216HW,2013-06-28 03:55:00,